McLean, Texas
Current Conditions -  °F | °C
As of 10:35 AM on Saturday 22 Nov 2014 (Local Time) from KPPA Reporting Station
Thunderstorm Thunderstorm  
Wind Chill: 61°   Ceiling: Unl
Heat Index: 61°   Visibility: 10mi
Dew Point: 48°   Wind: 13mph
Humidity: 62%   Direction: 240°WSW
Pressure: 29.92"   Gusts: NA
Location:  35.23°N, 100.6°W
Report Text: KPPA 221635Z AUTO 24011KT 10SM VCTS CLR 16/09 A2992 RMK AO2 LTG DSNT SE THRU SW T01620089 PNO
Loading
Personal Weather Stations






























Interactive Weather Map New forecast layout! Learn more

10-Day Weather Forecast

Advertisements
Track Severe Weather on mobile